Aviation Digital Data Service (ADDS)

Output produced by METARs form (0036 UTC 23 March 2019)
found at http://www.aviationweather.gov/metar/data/
 
Forecast for: WMKA (S ABDUL HALIM , MY)
Text: TAF WMKA 222300Z 2300/2400 VRB03KT 9999 FEW020 BKN280
Forecast period: 0000 to 0300 UTC 23 March 2019
Forecast type: FROM: standard forecast or significant change
Winds: variable direction winds at 3 MPH (3 knots; 1.5 m/s)
Visibility: 6 or more miles 10+ km)
Ceiling: 28000 feet AGL
Clouds: few clouds at 2000 feet AGL
broken clouds at 28000 feet AGL
Weather: no significant weather forecast for this period
Text: BECMG 2303/2305 25010KT
Forecast period: 0300 UTC 23 March 2019 to 0000 UTC 24 March 2019
Forecast type: BECOMING: Conditions expected to become as follows by 0500 UTC 23 March 2019
Winds: from the WSW (250 degrees) at 12 MPH (10 knots; 5.1 m/s)
Visibility: 6 or more miles 10+ km)
Ceiling: 28000 feet AGL
Clouds: few clouds at 2000 feet AGL
broken clouds at 28000 feet AGL
Weather: no significant weather forecast for this period